sensor_id;sensor_type;location;lat;lon;timestamp;temperature;humidity
18339;DHT22;9295;44.484;11.240;2023-09-19T00:00:46;24.20;99.90
18339;DHT22;9295;44.484;11.240;2023-09-19T00:03:16;24.20;99.90
18339;DHT22;9295;44.484;11.240;2023-09-19T00:05:45;24.10;99.90
18339;DHT22;9295;44.484;11.240;2023-09-19T00:08:14;24.00;99.90
18339;DHT22;9295;44.484;11.240;2023-09-19T00:10:45;23.90;99.90
18339;DHT22;9295;44.484;11.240;2023-09-19T00:13:13;23.90;99.90
18339;DHT22;9295;44.484;11.240;2023-09-19T00:15:45;23.90;99.90
18339;DHT22;9295;44.484;11.240;2023-09-19T00:18:18;23.80;99.90
18339;DHT22;9295;44.484;11.240;2023-09-19T00:20:48;23.80;99.90
18339;DHT22;9295;44.484;11.240;2023-09-19T00:23:19;23.80;99.90
18339;DHT22;9295;44.484;11.240;2023-09-19T00:25:50;23.80;99.90
18339;DHT22;9295;44.484;11.240;2023-09-19T00:28:19;23.80;99.90
18339;DHT22;9295;44.484;11.240;2023-09-19T00:30:48;23.70;99.90
18339;DHT22;9295;44.484;11.240;2023-09-19T00:33:18;23.60;99.90
18339;DHT22;9295;44.484;11.240;2023-09-19T00:35:48;23.50;99.90
18339;DHT22;9295;44.484;11.240;2023-09-19T00:38:17;23.40;99.90
18339;DHT22;9295;44.484;11.240;2023-09-19T00:40:50;23.30;99.90
18339;DHT22;9295;44.484;11.240;2023-09-19T00:43:19;23.30;99.90
18339;DHT22;9295;44.484;11.240;2023-09-19T00:45:51;23.20;99.90
18339;DHT22;9295;44.484;11.240;2023-09-19T00:48:21;23.10;99.90
18339;DHT22;9295;44.484;11.240;2023-09-19T00:50:50;23.00;99.90
18339;DHT22;9295;44.484;11.240;2023-09-19T00:53:22;23.00;99.90
18339;DHT22;9295;44.484;11.240;2023-09-19T00:55:55;22.90;99.90
18339;DHT22;9295;44.484;11.240;2023-09-19T00:58:24;22.80;99.90
18339;DHT22;9295;44.484;11.240;2023-09-19T01:00:53;22.80;99.90
18339;DHT22;9295;44.484;11.240;2023-09-19T01:03:23;22.80;99.90
18339;DHT22;9295;44.484;11.240;2023-09-19T01:05:52;22.70;99.90
18339;DHT22;9295;44.484;11.240;2023-09-19T01:08:20;22.70;99.90
18339;DHT22;9295;44.484;11.240;2023-09-19T01:10:54;22.70;99.90
18339;DHT22;9295;44.484;11.240;2023-09-19T01:13:29;22.70;99.90
18339;DHT22;9295;44.484;11.240;2023-09-19T01:16:05;22.70;99.90
18339;DHT22;9295;44.484;11.240;2023-09-19T01:18:51;22.60;99.90
18339;DHT22;9295;44.484;11.240;2023-09-19T01:21:26;22.50;99.90
18339;DHT22;9295;44.484;11.240;2023-09-19T01:24:22;22.30;99.90
18339;DHT22;9295;44.484;11.240;2023-09-19T01:27:12;22.20;99.90
18339;DHT22;9295;44.484;11.240;2023-09-19T01:29:49;22.20;99.90
18339;DHT22;9295;44.484;11.240;2023-09-19T01:32:21;22.20;99.90
18339;DHT22;9295;44.484;11.240;2023-09-19T01:34:54;22.30;99.90
18339;DHT22;9295;44.484;11.240;2023-09-19T01:37:26;22.30;99.90
18339;DHT22;9295;44.484;11.240;2023-09-19T01:39:59;22.30;99.90
18339;DHT22;9295;44.484;11.240;2023-09-19T01:42:43;22.20;99.90
18339;DHT22;9295;44.484;11.240;2023-09-19T01:45:16;22.20;99.90
18339;DHT22;9295;44.484;11.240;2023-09-19T01:47:52;22.20;99.90
18339;DHT22;9295;44.484;11.240;2023-09-19T01:50:30;22.10;99.90
18339;DHT22;9295;44.484;11.240;2023-09-19T01:53:06;22.00;99.90
18339;DHT22;9295;44.484;11.240;2023-09-19T01:55:43;21.90;99.90
18339;DHT22;9295;44.484;11.240;2023-09-19T01:58:18;21.80;99.90
18339;DHT22;9295;44.484;11.240;2023-09-19T02:00:50;21.70;99.90
18339;DHT22;9295;44.484;11.240;2023-09-19T02:03:21;21.70;99.90
18339;DHT22;9295;44.484;11.240;2023-09-19T02:05:51;21.70;99.90
18339;DHT22;9295;44.484;11.240;2023-09-19T02:08:22;21.70;99.90
18339;DHT22;9295;44.484;11.240;2023-09-19T02:10:52;21.80;99.90
18339;DHT22;9295;44.484;11.240;2023-09-19T02:13:22;21.80;99.90
18339;DHT22;9295;44.484;11.240;2023-09-19T02:15:52;21.80;99.90
18339;DHT22;9295;44.484;11.240;2023-09-19T02:18:22;21.70;99.90
18339;DHT22;9295;44.484;11.240;2023-09-19T02:20:50;21.70;99.90
18339;DHT22;9295;44.484;11.240;2023-09-19T02:23:21;21.60;99.90
18339;DHT22;9295;44.484;11.240;2023-09-19T02:25:53;21.50;99.90
18339;DHT22;9295;44.484;11.240;2023-09-19T02:28:22;21.40;99.90
18339;DHT22;9295;44.484;11.240;2023-09-19T02:30:51;21.30;99.90
18339;DHT22;9295;44.484;11.240;2023-09-19T02:33:19;21.30;99.90
18339;DHT22;9295;44.484;11.240;2023-09-19T02:35:56;21.20;99.90
18339;DHT22;9295;44.484;11.240;2023-09-19T02:38:25;21.20;99.90
18339;DHT22;9295;44.484;11.240;2023-09-19T02:40:54;21.20;99.90
18339;DHT22;9295;44.484;11.240;2023-09-19T02:43:23;21.20;99.90
18339;DHT22;9295;44.484;11.240;2023-09-19T02:45:53;21.20;99.90
18339;DHT22;9295;44.484;11.240;2023-09-19T02:48:22;21.20;99.90
18339;DHT22;9295;44.484;11.240;2023-09-19T02:50:52;21.20;99.90
18339;DHT22;9295;44.484;11.240;2023-09-19T02:53:22;21.10;99.90
18339;DHT22;9295;44.484;11.240;2023-09-19T02:55:51;21.10;99.90
18339;DHT22;9295;44.484;11.240;2023-09-19T02:58:20;21.10;99.90
18339;DHT22;9295;44.484;11.240;2023-09-19T03:00:51;21.00;99.90
18339;DHT22;9295;44.484;11.240;2023-09-19T03:03:20;20.90;99.90
18339;DHT22;9295;44.484;11.240;2023-09-19T03:05:49;20.90;99.90
18339;DHT22;9295;44.484;11.240;2023-09-19T03:08:23;20.90;99.90
18339;DHT22;9295;44.484;11.240;2023-09-19T03:10:52;20.80;99.90
18339;DHT22;9295;44.484;11.240;2023-09-19T03:13:21;20.80;99.90
18339;DHT22;9295;44.484;11.240;2023-09-19T03:15:50;20.80;99.90
18339;DHT22;9295;44.484;11.240;2023-09-19T03:18:24;20.70;99.90
18339;DHT22;9295;44.484;11.240;2023-09-19T03:20:54;20.80;99.90
18339;DHT22;9295;44.484;11.240;2023-09-19T03:23:25;20.80;99.90
18339;DHT22;9295;44.484;11.240;2023-09-19T03:25:55;20.80;99.90
18339;DHT22;9295;44.484;11.240;2023-09-19T03:28:26;20.80;99.90
18339;DHT22;9295;44.484;11.240;2023-09-19T03:30:59;20.80;99.90
18339;DHT22;9295;44.484;11.240;2023-09-19T03:33:30;20.70;99.90
18339;DHT22;9295;44.484;11.240;2023-09-19T03:36:02;20.70;99.90
18339;DHT22;9295;44.484;11.240;2023-09-19T03:38:34;20.70;99.90
18339;DHT22;9295;44.484;11.240;2023-09-19T03:41:03;20.70;99.90
18339;DHT22;9295;44.484;11.240;2023-09-19T03:43:35;20.70;99.90
18339;DHT22;9295;44.484;11.240;2023-09-19T03:46:04;20.60;99.90
18339;DHT22;9295;44.484;11.240;2023-09-19T03:48:35;20.60;99.90
18339;DHT22;9295;44.484;11.240;2023-09-19T03:51:04;20.60;99.90
18339;DHT22;9295;44.484;11.240;2023-09-19T03:53:34;20.60;99.90
18339;DHT22;9295;44.484;11.240;2023-09-19T03:56:03;20.60;99.90
18339;DHT22;9295;44.484;11.240;2023-09-19T03:58:33;20.50;99.90
18339;DHT22;9295;44.484;11.240;2023-09-19T04:01:06;20.50;99.90
18339;DHT22;9295;44.484;11.240;2023-09-19T04:03:35;20.40;99.90
18339;DHT22;9295;44.484;11.240;2023-09-19T04:06:14;20.40;99.90
18339;DHT22;9295;44.484;11.240;2023-09-19T04:08:44;20.30;99.90
18339;DHT22;9295;44.484;11.240;2023-09-19T04:11:14;20.20;99.90
18339;DHT22;9295;44.484;11.240;2023-09-19T04:13:43;20.10;99.90
18339;DHT22;9295;44.484;11.240;2023-09-19T04:16:11;20.10;99.90
18339;DHT22;9295;44.484;11.240;2023-09-19T04:18:41;20.10;99.90
18339;DHT22;9295;44.484;11.240;2023-09-19T04:21:09;20.00;99.90
18339;DHT22;9295;44.484;11.240;2023-09-19T04:23:38;20.00;99.90
18339;DHT22;9295;44.484;11.240;2023-09-19T04:26:09;20.00;99.90
18339;DHT22;9295;44.484;11.240;2023-09-19T04:28:39;20.00;99.90
18339;DHT22;9295;44.484;11.240;2023-09-19T04:31:08;20.00;99.90
18339;DHT22;9295;44.484;11.240;2023-09-19T04:33:37;20.00;99.90
18339;DHT22;9295;44.484;11.240;2023-09-19T04:36:07;19.90;99.90
18339;DHT22;9295;44.484;11.240;2023-09-19T04:38:55;20.00;99.90
18339;DHT22;9295;44.484;11.240;2023-09-19T04:41:26;19.90;99.90
18339;DHT22;9295;44.484;11.240;2023-09-19T04:43:54;19.90;99.90
18339;DHT22;9295;44.484;11.240;2023-09-19T04:46:23;19.80;99.90
18339;DHT22;9295;44.484;11.240;2023-09-19T04:48:52;19.90;99.90
18339;DHT22;9295;44.484;11.240;2023-09-19T04:51:21;19.90;99.90
18339;DHT22;9295;44.484;11.240;2023-09-19T04:53:50;20.00;99.90
18339;DHT22;9295;44.484;11.240;2023-09-19T04:56:18;20.00;99.90
18339;DHT22;9295;44.484;11.240;2023-09-19T04:58:49;19.90;99.90
18339;DHT22;9295;44.484;11.240;2023-09-19T05:01:18;19.90;99.90
18339;DHT22;9295;44.484;11.240;2023-09-19T05:03:50;19.90;99.90
18339;DHT22;9295;44.484;11.240;2023-09-19T05:06:20;20.00;99.90
18339;DHT22;9295;44.484;11.240;2023-09-19T05:08:49;19.90;99.90
18339;DHT22;9295;44.484;11.240;2023-09-19T05:11:18;19.90;99.90
18339;DHT22;9295;44.484;11.240;2023-09-19T05:13:50;19.90;99.90
18339;DHT22;9295;44.484;11.240;2023-09-19T05:16:20;20.00;99.90
18339;DHT22;9295;44.484;11.240;2023-09-19T05:18:49;19.90;99.90
18339;DHT22;9295;44.484;11.240;2023-09-19T05:21:18;19.90;99.90
18339;DHT22;9295;44.484;11.240;2023-09-19T05:23:47;19.90;99.90
18339;DHT22;9295;44.484;11.240;2023-09-19T05:26:16;20.00;99.90
18339;DHT22;9295;44.484;11.240;2023-09-19T05:28:45;20.00;99.90
18339;DHT22;9295;44.484;11.240;2023-09-19T05:31:16;20.10;99.90
18339;DHT22;9295;44.484;11.240;2023-09-19T05:33:45;20.10;99.90
18339;DHT22;9295;44.484;11.240;2023-09-19T05:36:14;20.20;99.90
18339;DHT22;9295;44.484;11.240;2023-09-19T05:38:44;20.20;99.90
18339;DHT22;9295;44.484;11.240;2023-09-19T05:41:13;20.30;99.90
18339;DHT22;9295;44.484;11.240;2023-09-19T05:43:42;20.30;99.90
18339;DHT22;9295;44.484;11.240;2023-09-19T05:46:11;20.30;99.90
18339;DHT22;9295;44.484;11.240;2023-09-19T05:48:41;20.40;99.90
18339;DHT22;9295;44.484;11.240;2023-09-19T05:51:11;20.50;99.90
18339;DHT22;9295;44.484;11.240;2023-09-19T05:53:39;20.50;99.90
18339;DHT22;9295;44.484;11.240;2023-09-19T05:56:10;20.60;99.90
18339;DHT22;9295;44.484;11.240;2023-09-19T05:58:41;20.60;99.90
18339;DHT22;9295;44.484;11.240;2023-09-19T06:01:11;20.70;99.90
18339;DHT22;9295;44.484;11.240;2023-09-19T06:03:42;20.80;99.90
18339;DHT22;9295;44.484;11.240;2023-09-19T06:06:10;20.90;99.90
18339;DHT22;9295;44.484;11.240;2023-09-19T06:08:39;21.20;99.90
18339;DHT22;9295;44.484;11.240;2023-09-19T06:11:09;21.70;99.90
18339;DHT22;9295;44.484;11.240;2023-09-19T06:13:38;21.90;99.90
18339;DHT22;9295;44.484;11.240;2023-09-19T06:16:08;22.10;99.90
18339;DHT22;9295;44.484;11.240;2023-09-19T06:18:37;22.30;99.90
18339;DHT22;9295;44.484;11.240;2023-09-19T06:21:07;22.50;99.90
18339;DHT22;9295;44.484;11.240;2023-09-19T06:23:36;22.80;99.90
18339;DHT22;9295;44.484;11.240;2023-09-19T06:26:05;23.00;99.90
18339;DHT22;9295;44.484;11.240;2023-09-19T06:28:35;23.20;99.90
18339;DHT22;9295;44.484;11.240;2023-09-19T06:31:04;23.40;99.90
18339;DHT22;9295;44.484;11.240;2023-09-19T06:33:37;23.60;99.90
18339;DHT22;9295;44.484;11.240;2023-09-19T06:36:08;23.70;99.90
18339;DHT22;9295;44.484;11.240;2023-09-19T06:38:38;24.00;99.90
18339;DHT22;9295;44.484;11.240;2023-09-19T06:41:09;24.10;99.90
18339;DHT22;9295;44.484;11.240;2023-09-19T06:43:37;24.20;99.90
18339;DHT22;9295;44.484;11.240;2023-09-19T06:46:07;24.30;99.90
18339;DHT22;9295;44.484;11.240;2023-09-19T06:48:36;24.50;99.90
18339;DHT22;9295;44.484;11.240;2023-09-19T06:51:05;24.60;99.90
18339;DHT22;9295;44.484;11.240;2023-09-19T06:53:35;24.60;99.90
18339;DHT22;9295;44.484;11.240;2023-09-19T06:56:04;24.70;99.90
18339;DHT22;9295;44.484;11.240;2023-09-19T06:58:33;24.80;99.90
18339;DHT22;9295;44.484;11.240;2023-09-19T07:01:04;24.90;99.90
18339;DHT22;9295;44.484;11.240;2023-09-19T07:03:33;25.10;99.90
18339;DHT22;9295;44.484;11.240;2023-09-19T07:06:01;25.30;99.90
18339;DHT22;9295;44.484;11.240;2023-09-19T07:08:32;25.50;99.90
18339;DHT22;9295;44.484;11.240;2023-09-19T07:11:02;25.70;99.90
18339;DHT22;9295;44.484;11.240;2023-09-19T07:13:33;25.90;99.90
18339;DHT22;9295;44.484;11.240;2023-09-19T07:16:03;26.00;99.90
18339;DHT22;9295;44.484;11.240;2023-09-19T07:18:32;26.20;99.90
18339;DHT22;9295;44.484;11.240;2023-09-19T07:21:00;26.40;99.90
18339;DHT22;9295;44.484;11.240;2023-09-19T07:23:32;26.60;99.90
18339;DHT22;9295;44.484;11.240;2023-09-19T07:26:03;26.60;99.90
18339;DHT22;9295;44.484;11.240;2023-09-19T07:28:33;26.70;99.90
18339;DHT22;9295;44.484;11.240;2023-09-19T07:31:03;26.90;99.90
18339;DHT22;9295;44.484;11.240;2023-09-19T07:33:32;27.00;99.90
18339;DHT22;9295;44.484;11.240;2023-09-19T07:36:01;27.10;99.90
18339;DHT22;9295;44.484;11.240;2023-09-19T07:38:30;27.30;99.90
18339;DHT22;9295;44.484;11.240;2023-09-19T07:41:00;27.30;99.90
18339;DHT22;9295;44.484;11.240;2023-09-19T07:43:31;27.50;99.90
18339;DHT22;9295;44.484;11.240;2023-09-19T07:46:04;27.50;99.90
18339;DHT22;9295;44.484;11.240;2023-09-19T07:48:35;27.60;99.90
18339;DHT22;9295;44.484;11.240;2023-09-19T07:51:06;27.70;99.90
18339;DHT22;9295;44.484;11.240;2023-09-19T07:53:35;27.80;99.90
18339;DHT22;9295;44.484;11.240;2023-09-19T07:56:06;27.90;99.90
18339;DHT22;9295;44.484;11.240;2023-09-19T07:58:40;27.90;99.90
18339;DHT22;9295;44.484;11.240;2023-09-19T08:01:10;27.80;99.90
18339;DHT22;9295;44.484;11.240;2023-09-19T08:03:40;27.90;99.90
18339;DHT22;9295;44.484;11.240;2023-09-19T08:06:11;28.00;99.90
18339;DHT22;9295;44.484;11.240;2023-09-19T08:08:40;28.10;99.90
18339;DHT22;9295;44.484;11.240;2023-09-19T08:11:09;28.20;99.90
18339;DHT22;9295;44.484;11.240;2023-09-19T08:13:41;28.30;99.90
18339;DHT22;9295;44.484;11.240;2023-09-19T08:16:11;28.30;99.90
18339;DHT22;9295;44.484;11.240;2023-09-19T08:18:42;28.30;99.90
18339;DHT22;9295;44.484;11.240;2023-09-19T08:21:17;28.30;99.90
18339;DHT22;9295;44.484;11.240;2023-09-19T08:23:46;28.30;99.90
18339;DHT22;9295;44.484;11.240;2023-09-19T08:26:15;28.20;99.90
18339;DHT22;9295;44.484;11.240;2023-09-19T08:28:45;28.30;99.90
18339;DHT22;9295;44.484;11.240;2023-09-19T08:31:15;28.30;99.90
18339;DHT22;9295;44.484;11.240;2023-09-19T08:33:44;28.30;99.90
18339;DHT22;9295;44.484;11.240;2023-09-19T08:36:14;28.30;99.90
18339;DHT22;9295;44.484;11.240;2023-09-19T08:38:43;28.40;99.90
18339;DHT22;9295;44.484;11.240;2023-09-19T08:41:12;28.50;99.90
18339;DHT22;9295;44.484;11.240;2023-09-19T08:43:41;28.50;99.90
18339;DHT22;9295;44.484;11.240;2023-09-19T08:46:14;28.50;99.90
18339;DHT22;9295;44.484;11.240;2023-09-19T08:48:48;28.70;99.90
18339;DHT22;9295;44.484;11.240;2023-09-19T08:51:26;28.80;99.90
18339;DHT22;9295;44.484;11.240;2023-09-19T08:54:07;28.80;99.90
18339;DHT22;9295;44.484;11.240;2023-09-19T08:56:38;28.70;99.90
18339;DHT22;9295;44.484;11.240;2023-09-19T08:59:07;28.70;99.90
18339;DHT22;9295;44.484;11.240;2023-09-19T09:01:38;28.70;99.90
18339;DHT22;9295;44.484;11.240;2023-09-19T09:04:09;28.80;99.90
18339;DHT22;9295;44.484;11.240;2023-09-19T09:06:41;28.70;99.90
18339;DHT22;9295;44.484;11.240;2023-09-19T09:09:12;28.60;99.90
18339;DHT22;9295;44.484;11.240;2023-09-19T09:11:41;28.80;99.90
18339;DHT22;9295;44.484;11.240;2023-09-19T09:14:10;29.00;99.90
18339;DHT22;9295;44.484;11.240;2023-09-19T09:16:41;29.00;99.90
18339;DHT22;9295;44.484;11.240;2023-09-19T09:19:09;29.00;99.90
18339;DHT22;9295;44.484;11.240;2023-09-19T09:21:40;29.00;99.90
18339;DHT22;9295;44.484;11.240;2023-09-19T09:24:26;28.90;99.90
18339;DHT22;9295;44.484;11.240;2023-09-19T09:26:57;28.80;99.90
18339;DHT22;9295;44.484;11.240;2023-09-19T09:29:50;29.00;99.90
18339;DHT22;9295;44.484;11.240;2023-09-19T09:32:25;29.10;99.90
18339;DHT22;9295;44.484;11.240;2023-09-19T09:34:57;29.20;99.90
18339;DHT22;9295;44.484;11.240;2023-09-19T09:37:28;29.30;99.90
18339;DHT22;9295;44.484;11.240;2023-09-19T09:40:02;29.30;99.90
18339;DHT22;9295;44.484;11.240;2023-09-19T09:42:47;29.20;99.90
18339;DHT22;9295;44.484;11.240;2023-09-19T09:45:21;29.20;99.90
18339;DHT22;9295;44.484;11.240;2023-09-19T09:47:57;29.10;99.90
18339;DHT22;9295;44.484;11.240;2023-09-19T09:50:30;29.20;99.90
18339;DHT22;9295;44.484;11.240;2023-09-19T09:53:21;29.30;99.90
18339;DHT22;9295;44.484;11.240;2023-09-19T09:56:02;29.20;99.90
18339;DHT22;9295;44.484;11.240;2023-09-19T09:58:34;28.90;99.90
18339;DHT22;9295;44.484;11.240;2023-09-19T10:01:04;28.90;99.90
18339;DHT22;9295;44.484;11.240;2023-09-19T10:03:39;29.00;99.90
18339;DHT22;9295;44.484;11.240;2023-09-19T10:06:12;29.10;99.90
18339;DHT22;9295;44.484;11.240;2023-09-19T10:09:05;29.10;99.90
18339;DHT22;9295;44.484;11.240;2023-09-19T10:11:43;29.10;99.90
18339;DHT22;9295;44.484;11.240;2023-09-19T10:14:16;29.10;99.90
18339;DHT22;9295;44.484;11.240;2023-09-19T10:16:47;29.10;99.90
18339;DHT22;9295;44.484;11.240;2023-09-19T10:19:23;28.90;99.90
18339;DHT22;9295;44.484;11.240;2023-09-19T10:21:54;29.00;99.90
18339;DHT22;9295;44.484;11.240;2023-09-19T10:24:26;28.90;99.90
18339;DHT22;9295;44.484;11.240;2023-09-19T10:26:55;28.90;99.90
18339;DHT22;9295;44.484;11.240;2023-09-19T10:29:27;28.90;99.90
18339;DHT22;9295;44.484;11.240;2023-09-19T10:31:59;28.70;99.90
18339;DHT22;9295;44.484;11.240;2023-09-19T10:34:35;28.70;99.90
18339;DHT22;9295;44.484;11.240;2023-09-19T10:37:06;28.60;99.90
18339;DHT22;9295;44.484;11.240;2023-09-19T10:39:37;28.60;99.90
18339;DHT22;9295;44.484;11.240;2023-09-19T10:42:11;28.70;99.90
18339;DHT22;9295;44.484;11.240;2023-09-19T10:44:45;28.90;99.90
18339;DHT22;9295;44.484;11.240;2023-09-19T10:47:16;28.90;99.90
18339;DHT22;9295;44.484;11.240;2023-09-19T10:49:50;28.90;99.90
18339;DHT22;9295;44.484;11.240;2023-09-19T10:52:22;28.80;99.90
18339;DHT22;9295;44.484;11.240;2023-09-19T10:54:53;28.80;99.90
18339;DHT22;9295;44.484;11.240;2023-09-19T10:57:26;28.80;99.90
18339;DHT22;9295;44.484;11.240;2023-09-19T11:00:03;28.80;99.90
18339;DHT22;9295;44.484;11.240;2023-09-19T11:03:17;28.80;99.90
18339;DHT22;9295;44.484;11.240;2023-09-19T11:06:03;28.70;99.90
18339;DHT22;9295;44.484;11.240;2023-09-19T11:08:58;28.60;99.90
18339;DHT22;9295;44.484;11.240;2023-09-19T11:11:56;28.60;99.90
18339;DHT22;9295;44.484;11.240;2023-09-19T11:14:45;28.50;99.90
18339;DHT22;9295;44.484;11.240;2023-09-19T11:17:42;28.40;99.90
18339;DHT22;9295;44.484;11.240;2023-09-19T11:20:23;28.40;99.90
18339;DHT22;9295;44.484;11.240;2023-09-19T11:23:20;28.50;99.90
18339;DHT22;9295;44.484;11.240;2023-09-19T11:25:54;28.60;99.90
18339;DHT22;9295;44.484;11.240;2023-09-19T11:28:33;28.50;99.90
18339;DHT22;9295;44.484;11.240;2023-09-19T11:34:37;28.50;99.90
18339;DHT22;9295;44.484;11.240;2023-09-19T11:40:10;28.60;99.90
18339;DHT22;9295;44.484;11.240;2023-09-19T11:42:44;28.70;99.90
18339;DHT22;9295;44.484;11.240;2023-09-19T11:48:29;28.60;99.90
18339;DHT22;9295;44.484;11.240;2023-09-19T11:51:00;28.60;99.90
18339;DHT22;9295;44.484;11.240;2023-09-19T11:53:35;28.60;99.90
18339;DHT22;9295;44.484;11.240;2023-09-19T11:56:10;28.60;99.90
18339;DHT22;9295;44.484;11.240;2023-09-19T11:58:41;28.50;99.90
18339;DHT22;9295;44.484;11.240;2023-09-19T12:01:14;28.70;99.90
18339;DHT22;9295;44.484;11.240;2023-09-19T12:03:54;28.70;99.90
18339;DHT22;9295;44.484;11.240;2023-09-19T12:06:36;28.80;99.90
18339;DHT22;9295;44.484;11.240;2023-09-19T12:09:12;28.80;99.90
18339;DHT22;9295;44.484;11.240;2023-09-19T12:11:48;28.80;99.90
18339;DHT22;9295;44.484;11.240;2023-09-19T12:14:22;28.90;99.90
18339;DHT22;9295;44.484;11.240;2023-09-19T12:16:54;28.80;99.90
18339;DHT22;9295;44.484;11.240;2023-09-19T12:19:26;28.60;99.90
18339;DHT22;9295;44.484;11.240;2023-09-19T12:21:57;28.50;99.90
18339;DHT22;9295;44.484;11.240;2023-09-19T12:24:27;28.50;99.90
18339;DHT22;9295;44.484;11.240;2023-09-19T12:27:04;28.50;99.90
18339;DHT22;9295;44.484;11.240;2023-09-19T12:29:42;28.80;99.90
18339;DHT22;9295;44.484;11.240;2023-09-19T12:32:12;28.70;99.90
18339;DHT22;9295;44.484;11.240;2023-09-19T12:34:51;28.70;99.90
18339;DHT22;9295;44.484;11.240;2023-09-19T12:37:21;28.80;99.90
18339;DHT22;9295;44.484;11.240;2023-09-19T12:39:52;29.00;99.90
18339;DHT22;9295;44.484;11.240;2023-09-19T12:42:25;28.90;99.90
18339;DHT22;9295;44.484;11.240;2023-09-19T12:44:57;28.90;99.90
18339;DHT22;9295;44.484;11.240;2023-09-19T12:47:28;28.90;99.90
18339;DHT22;9295;44.484;11.240;2023-09-19T12:50:13;29.00;99.90
18339;DHT22;9295;44.484;11.240;2023-09-19T12:52:45;29.00;99.90
18339;DHT22;9295;44.484;11.240;2023-09-19T12:55:23;28.90;99.90
18339;DHT22;9295;44.484;11.240;2023-09-19T12:58:12;28.90;99.90
18339;DHT22;9295;44.484;11.240;2023-09-19T13:00:44;28.90;99.90
18339;DHT22;9295;44.484;11.240;2023-09-19T13:03:15;28.80;99.90
18339;DHT22;9295;44.484;11.240;2023-09-19T13:05:53;28.80;99.90
18339;DHT22;9295;44.484;11.240;2023-09-19T13:08:26;28.80;99.90
18339;DHT22;9295;44.484;11.240;2023-09-19T13:11:03;28.90;99.90
18339;DHT22;9295;44.484;11.240;2023-09-19T13:13:40;28.90;99.90
18339;DHT22;9295;44.484;11.240;2023-09-19T13:16:11;29.00;99.90
18339;DHT22;9295;44.484;11.240;2023-09-19T13:18:43;29.20;99.90
18339;DHT22;9295;44.484;11.240;2023-09-19T13:21:14;29.10;99.90
18339;DHT22;9295;44.484;11.240;2023-09-19T13:24:18;29.10;99.90
18339;DHT22;9295;44.484;11.240;2023-09-19T13:26:46;29.20;99.90
18339;DHT22;9295;44.484;11.240;2023-09-19T13:29:17;29.10;99.90
18339;DHT22;9295;44.484;11.240;2023-09-19T13:31:46;29.00;99.90
18339;DHT22;9295;44.484;11.240;2023-09-19T13:34:22;29.10;99.90
18339;DHT22;9295;44.484;11.240;2023-09-19T13:36:51;29.00;99.90
18339;DHT22;9295;44.484;11.240;2023-09-19T13:39:20;29.00;99.90
18339;DHT22;9295;44.484;11.240;2023-09-19T13:41:51;29.00;99.90
18339;DHT22;9295;44.484;11.240;2023-09-19T13:44:21;29.00;99.90
18339;DHT22;9295;44.484;11.240;2023-09-19T13:46:50;29.10;99.90
18339;DHT22;9295;44.484;11.240;2023-09-19T13:49:19;29.10;99.90
18339;DHT22;9295;44.484;11.240;2023-09-19T13:51:49;29.20;99.90
18339;DHT22;9295;44.484;11.240;2023-09-19T13:54:17;29.30;99.90
18339;DHT22;9295;44.484;11.240;2023-09-19T13:56:48;29.30;99.90
18339;DHT22;9295;44.484;11.240;2023-09-19T13:59:16;29.30;99.90
18339;DHT22;9295;44.484;11.240;2023-09-19T14:01:46;29.30;99.90
18339;DHT22;9295;44.484;11.240;2023-09-19T14:04:15;29.30;99.90
18339;DHT22;9295;44.484;11.240;2023-09-19T14:06:44;29.20;99.90
18339;DHT22;9295;44.484;11.240;2023-09-19T14:09:13;29.30;99.90
18339;DHT22;9295;44.484;11.240;2023-09-19T14:11:46;29.30;99.90
18339;DHT22;9295;44.484;11.240;2023-09-19T14:14:15;29.40;99.90
18339;DHT22;9295;44.484;11.240;2023-09-19T14:16:44;29.50;99.90
18339;DHT22;9295;44.484;11.240;2023-09-19T14:19:14;29.50;99.90
18339;DHT22;9295;44.484;11.240;2023-09-19T14:21:43;29.40;99.90
18339;DHT22;9295;44.484;11.240;2023-09-19T14:24:16;29.40;99.90
18339;DHT22;9295;44.484;11.240;2023-09-19T14:26:45;29.50;99.90
18339;DHT22;9295;44.484;11.240;2023-09-19T14:29:13;29.50;99.90
18339;DHT22;9295;44.484;11.240;2023-09-19T14:31:43;29.40;99.90
18339;DHT22;9295;44.484;11.240;2023-09-19T14:34:11;29.50;99.90
18339;DHT22;9295;44.484;11.240;2023-09-19T14:36:42;29.50;99.90
18339;DHT22;9295;44.484;11.240;2023-09-19T14:39:11;29.60;99.90
18339;DHT22;9295;44.484;11.240;2023-09-19T14:41:40;29.50;99.90
18339;DHT22;9295;44.484;11.240;2023-09-19T14:44:08;29.60;99.90
18339;DHT22;9295;44.484;11.240;2023-09-19T14:46:38;29.70;99.90
18339;DHT22;9295;44.484;11.240;2023-09-19T14:49:07;29.50;99.90
18339;DHT22;9295;44.484;11.240;2023-09-19T14:51:38;29.60;99.90
18339;DHT22;9295;44.484;11.240;2023-09-19T14:54:09;29.60;99.90
18339;DHT22;9295;44.484;11.240;2023-09-19T14:56:37;29.50;99.90
18339;DHT22;9295;44.484;11.240;2023-09-19T14:59:10;29.40;99.90
18339;DHT22;9295;44.484;11.240;2023-09-19T15:01:40;29.40;99.90
18339;DHT22;9295;44.484;11.240;2023-09-19T15:04:09;29.50;99.90
18339;DHT22;9295;44.484;11.240;2023-09-19T15:06:38;29.50;99.90
18339;DHT22;9295;44.484;11.240;2023-09-19T15:09:06;29.50;99.90
18339;DHT22;9295;44.484;11.240;2023-09-19T15:11:38;29.50;99.90
18339;DHT22;9295;44.484;11.240;2023-09-19T15:14:06;29.50;99.90
18339;DHT22;9295;44.484;11.240;2023-09-19T15:16:35;29.50;99.90
18339;DHT22;9295;44.484;11.240;2023-09-19T15:19:04;29.60;99.90
18339;DHT22;9295;44.484;11.240;2023-09-19T15:21:34;29.70;99.90
18339;DHT22;9295;44.484;11.240;2023-09-19T15:24:05;29.60;99.90
18339;DHT22;9295;44.484;11.240;2023-09-19T15:26:38;29.60;99.90
18339;DHT22;9295;44.484;11.240;2023-09-19T15:29:07;29.60;99.90
18339;DHT22;9295;44.484;11.240;2023-09-19T15:31:36;29.60;99.90
18339;DHT22;9295;44.484;11.240;2023-09-19T15:34:05;29.70;99.90
18339;DHT22;9295;44.484;11.240;2023-09-19T15:36:34;29.70;99.90
18339;DHT22;9295;44.484;11.240;2023-09-19T15:39:03;29.70;99.90
18339;DHT22;9295;44.484;11.240;2023-09-19T15:41:34;29.70;99.90
18339;DHT22;9295;44.484;11.240;2023-09-19T15:44:11;29.70;99.90
18339;DHT22;9295;44.484;11.240;2023-09-19T15:46:41;29.70;99.90
18339;DHT22;9295;44.484;11.240;2023-09-19T15:49:12;29.70;99.90
18339;DHT22;9295;44.484;11.240;2023-09-19T15:51:41;29.60;99.90
18339;DHT22;9295;44.484;11.240;2023-09-19T15:54:11;29.60;99.90
18339;DHT22;9295;44.484;11.240;2023-09-19T15:56:41;29.50;99.90
18339;DHT22;9295;44.484;11.240;2023-09-19T15:59:12;29.40;99.90
18339;DHT22;9295;44.484;11.240;2023-09-19T16:01:41;29.30;99.90
18339;DHT22;9295;44.484;11.240;2023-09-19T16:04:11;29.20;99.90
18339;DHT22;9295;44.484;11.240;2023-09-19T16:06:40;29.10;99.90
18339;DHT22;9295;44.484;11.240;2023-09-19T16:09:09;29.00;99.90